sensor_id;sensor_type;location;lat;lon;timestamp;temperature;humidity
3756;DHT22;1893;52.526;13.360;2023-05-28T00:02:09;15.10;25.00
3756;DHT22;1893;52.526;13.360;2023-05-28T00:04:34;15.10;26.00
3756;DHT22;1893;52.526;13.360;2023-05-28T00:07:00;15.10;27.10
3756;DHT22;1893;52.526;13.360;2023-05-28T00:09:26;15.20;27.80
3756;DHT22;1893;52.526;13.360;2023-05-28T00:11:52;15.20;28.60
3756;DHT22;1893;52.526;13.360;2023-05-28T00:14:17;15.10;29.40
3756;DHT22;1893;52.526;13.360;2023-05-28T00:16:43;15.10;30.40
3756;DHT22;1893;52.526;13.360;2023-05-28T00:19:10;15.10;32.00
3756;DHT22;1893;52.526;13.360;2023-05-28T00:21:36;15.00;32.60
3756;DHT22;1893;52.526;13.360;2023-05-28T00:24:02;15.00;34.90
3756;DHT22;1893;52.526;13.360;2023-05-28T00:26:29;14.90;36.20
3756;DHT22;1893;52.526;13.360;2023-05-28T00:28:54;14.90;38.70
3756;DHT22;1893;52.526;13.360;2023-05-28T00:31:20;14.80;43.30
3756;DHT22;1893;52.526;13.360;2023-05-28T00:33:46;14.70;45.40
3756;DHT22;1893;52.526;13.360;2023-05-28T00:36:14;14.70;47.80
3756;DHT22;1893;52.526;13.360;2023-05-28T00:38:40;14.70;49.10
3756;DHT22;1893;52.526;13.360;2023-05-28T00:41:06;14.60;55.20
3756;DHT22;1893;52.526;13.360;2023-05-28T00:43:32;14.60;58.00
3756;DHT22;1893;52.526;13.360;2023-05-28T00:45:59;14.50;58.90
3756;DHT22;1893;52.526;13.360;2023-05-28T00:48:26;14.40;68.80
3756;DHT22;1893;52.526;13.360;2023-05-28T00:50:53;14.40;91.70
3756;DHT22;1893;52.526;13.360;2023-05-28T00:53:19;14.30;79.70
3756;DHT22;1893;52.526;13.360;2023-05-28T00:55:45;14.20;84.50
3756;DHT22;1893;52.526;13.360;2023-05-28T00:58:11;14.30;84.80
3756;DHT22;1893;52.526;13.360;2023-05-28T01:00:37;14.20;90.70
3756;DHT22;1893;52.526;13.360;2023-05-28T01:03:06;14.20;90.00
3756;DHT22;1893;52.526;13.360;2023-05-28T01:05:31;14.10;91.90
3756;DHT22;1893;52.526;13.360;2023-05-28T01:08:03;14.20;92.00
3756;DHT22;1893;52.526;13.360;2023-05-28T01:10:31;14.20;92.50
3756;DHT22;1893;52.526;13.360;2023-05-28T01:12:58;14.20;90.90
3756;DHT22;1893;52.526;13.360;2023-05-28T01:15:25;14.20;90.50
3756;DHT22;1893;52.526;13.360;2023-05-28T01:17:57;14.30;92.30
3756;DHT22;1893;52.526;13.360;2023-05-28T01:20:25;14.20;92.20
3756;DHT22;1893;52.526;13.360;2023-05-28T01:23:17;14.20;92.80
3756;DHT22;1893;52.526;13.360;2023-05-28T01:25:41;14.20;94.00
3756;DHT22;1893;52.526;13.360;2023-05-28T01:28:13;14.20;94.90
3756;DHT22;1893;52.526;13.360;2023-05-28T01:30:39;14.10;96.80
3756;DHT22;1893;52.526;13.360;2023-05-28T01:33:06;14.10;97.20
3756;DHT22;1893;52.526;13.360;2023-05-28T01:35:32;14.20;98.50
3756;DHT22;1893;52.526;13.360;2023-05-28T01:37:59;14.20;99.90
3756;DHT22;1893;52.526;13.360;2023-05-28T01:40:26;14.00;99.90
3756;DHT22;1893;52.526;13.360;2023-05-28T01:42:53;14.00;99.90
3756;DHT22;1893;52.526;13.360;2023-05-28T01:45:22;13.90;99.90
3756;DHT22;1893;52.526;13.360;2023-05-28T01:47:49;13.80;99.90
3756;DHT22;1893;52.526;13.360;2023-05-28T01:50:15;13.70;99.90
3756;DHT22;1893;52.526;13.360;2023-05-28T01:52:41;13.70;99.90
3756;DHT22;1893;52.526;13.360;2023-05-28T01:55:07;13.70;99.90
3756;DHT22;1893;52.526;13.360;2023-05-28T01:57:35;13.70;99.90
3756;DHT22;1893;52.526;13.360;2023-05-28T02:00:00;13.60;99.90
3756;DHT22;1893;52.526;13.360;2023-05-28T02:02:26;13.60;99.90
3756;DHT22;1893;52.526;13.360;2023-05-28T02:04:52;13.60;99.90
3756;DHT22;1893;52.526;13.360;2023-05-28T02:07:18;13.60;99.90
3756;DHT22;1893;52.526;13.360;2023-05-28T02:09:44;13.50;99.90
3756;DHT22;1893;52.526;13.360;2023-05-28T02:12:11;13.50;99.90
3756;DHT22;1893;52.526;13.360;2023-05-28T02:14:36;13.40;99.90
3756;DHT22;1893;52.526;13.360;2023-05-28T02:17:02;13.40;99.90
3756;DHT22;1893;52.526;13.360;2023-05-28T02:19:28;13.40;99.90
3756;DHT22;1893;52.526;13.360;2023-05-28T02:21:54;13.40;99.90
3756;DHT22;1893;52.526;13.360;2023-05-28T02:24:21;13.30;99.90
3756;DHT22;1893;52.526;13.360;2023-05-28T02:26:47;13.20;99.90
3756;DHT22;1893;52.526;13.360;2023-05-28T02:29:13;13.20;99.90
3756;DHT22;1893;52.526;13.360;2023-05-28T02:31:39;13.10;99.90
3756;DHT22;1893;52.526;13.360;2023-05-28T02:34:04;13.20;99.90
3756;DHT22;1893;52.526;13.360;2023-05-28T02:36:30;13.20;99.90
3756;DHT22;1893;52.526;13.360;2023-05-28T02:38:55;13.00;99.90
3756;DHT22;1893;52.526;13.360;2023-05-28T02:41:21;12.90;99.90
3756;DHT22;1893;52.526;13.360;2023-05-28T02:43:47;13.00;99.90
3756;DHT22;1893;52.526;13.360;2023-05-28T02:46:12;13.00;99.90
3756;DHT22;1893;52.526;13.360;2023-05-28T02:48:38;12.90;99.90
3756;DHT22;1893;52.526;13.360;2023-05-28T02:51:04;12.90;99.90
3756;DHT22;1893;52.526;13.360;2023-05-28T02:53:30;12.90;99.90
3756;DHT22;1893;52.526;13.360;2023-05-28T02:55:59;12.80;99.90
3756;DHT22;1893;52.526;13.360;2023-05-28T02:58:25;12.70;99.90
3756;DHT22;1893;52.526;13.360;2023-05-28T03:00:51;12.50;99.90
3756;DHT22;1893;52.526;13.360;2023-05-28T03:03:16;12.50;99.90
3756;DHT22;1893;52.526;13.360;2023-05-28T03:05:42;12.50;99.90
3756;DHT22;1893;52.526;13.360;2023-05-28T03:08:08;12.30;99.90
3756;DHT22;1893;52.526;13.360;2023-05-28T03:10:33;12.30;1.00
3756;DHT22;1893;52.526;13.360;2023-05-28T03:12:59;12.30;1.00
3756;DHT22;1893;52.526;13.360;2023-05-28T03:15:25;12.30;1.00
3756;DHT22;1893;52.526;13.360;2023-05-28T03:17:53;12.50;1.00
3756;DHT22;1893;52.526;13.360;2023-05-28T03:20:19;12.40;1.00
3756;DHT22;1893;52.526;13.360;2023-05-28T03:22:46;12.30;1.00
3756;DHT22;1893;52.526;13.360;2023-05-28T03:25:15;12.30;1.00
3756;DHT22;1893;52.526;13.360;2023-05-28T03:27:40;12.30;1.00
3756;DHT22;1893;52.526;13.360;2023-05-28T03:30:06;12.30;1.00
3756;DHT22;1893;52.526;13.360;2023-05-28T03:32:35;12.30;1.00
3756;DHT22;1893;52.526;13.360;2023-05-28T03:35:00;12.20;1.00
3756;DHT22;1893;52.526;13.360;2023-05-28T03:37:26;12.20;1.00
3756;DHT22;1893;52.526;13.360;2023-05-28T03:39:53;12.10;1.00
3756;DHT22;1893;52.526;13.360;2023-05-28T03:42:19;12.20;1.00
3756;DHT22;1893;52.526;13.360;2023-05-28T03:44:44;12.20;1.00
3756;DHT22;1893;52.526;13.360;2023-05-28T03:47:10;12.20;1.00
3756;DHT22;1893;52.526;13.360;2023-05-28T03:49:36;12.20;2.20
3756;DHT22;1893;52.526;13.360;2023-05-28T03:52:02;12.10;99.90
3756;DHT22;1893;52.526;13.360;2023-05-28T03:54:27;12.20;99.90
3756;DHT22;1893;52.526;13.360;2023-05-28T03:56:53;12.40;99.90
3756;DHT22;1893;52.526;13.360;2023-05-28T03:59:18;12.40;75.80
3756;DHT22;1893;52.526;13.360;2023-05-28T04:01:44;12.40;70.80
3756;DHT22;1893;52.526;13.360;2023-05-28T04:04:10;12.50;1.00
3756;DHT22;1893;52.526;13.360;2023-05-28T04:06:36;12.50;1.00
3756;DHT22;1893;52.526;13.360;2023-05-28T04:09:02;12.60;1.00
3756;DHT22;1893;52.526;13.360;2023-05-28T04:11:28;12.70;1.00
3756;DHT22;1893;52.526;13.360;2023-05-28T04:13:55;12.70;1.00
3756;DHT22;1893;52.526;13.360;2023-05-28T04:16:21;12.70;1.00
3756;DHT22;1893;52.526;13.360;2023-05-28T04:18:51;12.80;1.00
3756;DHT22;1893;52.526;13.360;2023-05-28T04:21:17;12.80;1.00
3756;DHT22;1893;52.526;13.360;2023-05-28T04:23:43;12.90;1.00
3756;DHT22;1893;52.526;13.360;2023-05-28T04:26:09;13.00;1.00
3756;DHT22;1893;52.526;13.360;2023-05-28T04:28:35;13.10;1.00
3756;DHT22;1893;52.526;13.360;2023-05-28T04:31:02;13.20;1.00
3756;DHT22;1893;52.526;13.360;2023-05-28T04:33:28;13.30;1.00
3756;DHT22;1893;52.526;13.360;2023-05-28T04:35:57;13.30;1.00
3756;DHT22;1893;52.526;13.360;2023-05-28T04:38:23;13.40;1.00
3756;DHT22;1893;52.526;13.360;2023-05-28T04:40:49;13.50;1.00
3756;DHT22;1893;52.526;13.360;2023-05-28T04:43:16;13.60;1.00
3756;DHT22;1893;52.526;13.360;2023-05-28T04:45:42;13.60;1.00
3756;DHT22;1893;52.526;13.360;2023-05-28T04:48:08;13.70;1.00
3756;DHT22;1893;52.526;13.360;2023-05-28T04:50:35;13.70;99.90
3756;DHT22;1893;52.526;13.360;2023-05-28T04:53:00;13.90;99.90
3756;DHT22;1893;52.526;13.360;2023-05-28T04:55:26;13.90;99.90
3756;DHT22;1893;52.526;13.360;2023-05-28T04:57:52;14.00;99.90
3756;DHT22;1893;52.526;13.360;2023-05-28T05:00:18;14.10;99.90
3756;DHT22;1893;52.526;13.360;2023-05-28T05:02:44;14.10;99.90
3756;DHT22;1893;52.526;13.360;2023-05-28T05:05:10;14.20;99.90
3756;DHT22;1893;52.526;13.360;2023-05-28T05:07:37;14.20;99.90
3756;DHT22;1893;52.526;13.360;2023-05-28T05:10:10;14.30;99.90
3756;DHT22;1893;52.526;13.360;2023-05-28T05:12:36;14.40;99.90
3756;DHT22;1893;52.526;13.360;2023-05-28T05:15:03;14.50;99.90
3756;DHT22;1893;52.526;13.360;2023-05-28T05:17:29;14.60;99.90
3756;DHT22;1893;52.526;13.360;2023-05-28T05:19:56;14.70;99.90
3756;DHT22;1893;52.526;13.360;2023-05-28T05:22:22;14.90;99.90
3756;DHT22;1893;52.526;13.360;2023-05-28T05:24:47;14.90;99.90
3756;DHT22;1893;52.526;13.360;2023-05-28T05:27:16;15.00;99.90
3756;DHT22;1893;52.526;13.360;2023-05-28T05:29:42;15.10;99.90
3756;DHT22;1893;52.526;13.360;2023-05-28T05:32:09;15.20;99.90
3756;DHT22;1893;52.526;13.360;2023-05-28T05:34:35;15.30;99.90
3756;DHT22;1893;52.526;13.360;2023-05-28T05:37:01;15.40;99.90
3756;DHT22;1893;52.526;13.360;2023-05-28T05:39:27;15.40;99.90
3756;DHT22;1893;52.526;13.360;2023-05-28T05:41:53;15.50;99.90
3756;DHT22;1893;52.526;13.360;2023-05-28T05:44:19;15.60;99.90
3756;DHT22;1893;52.526;13.360;2023-05-28T05:46:45;15.80;99.90
3756;DHT22;1893;52.526;13.360;2023-05-28T05:49:10;16.10;99.90
3756;DHT22;1893;52.526;13.360;2023-05-28T05:51:36;16.20;99.90
3756;DHT22;1893;52.526;13.360;2023-05-28T05:54:02;16.30;99.90
3756;DHT22;1893;52.526;13.360;2023-05-28T05:56:28;16.40;99.90
3756;DHT22;1893;52.526;13.360;2023-05-28T05:58:54;16.30;99.90
3756;DHT22;1893;52.526;13.360;2023-05-28T06:01:21;16.30;99.90
3756;DHT22;1893;52.526;13.360;2023-05-28T06:03:46;16.30;99.90
3756;DHT22;1893;52.526;13.360;2023-05-28T06:06:12;16.40;99.90
3756;DHT22;1893;52.526;13.360;2023-05-28T06:08:38;16.40;99.90
3756;DHT22;1893;52.526;13.360;2023-05-28T06:11:04;16.50;99.90
3756;DHT22;1893;52.526;13.360;2023-05-28T06:13:30;16.60;99.90
3756;DHT22;1893;52.526;13.360;2023-05-28T06:15:56;16.60;99.90
3756;DHT22;1893;52.526;13.360;2023-05-28T06:18:23;16.70;99.90
3756;DHT22;1893;52.526;13.360;2023-05-28T06:20:49;16.90;99.90
3756;DHT22;1893;52.526;13.360;2023-05-28T06:23:15;16.90;99.90
3756;DHT22;1893;52.526;13.360;2023-05-28T06:25:41;16.80;99.90
3756;DHT22;1893;52.526;13.360;2023-05-28T06:28:07;17.00;99.90
3756;DHT22;1893;52.526;13.360;2023-05-28T06:30:32;17.00;99.90
3756;DHT22;1893;52.526;13.360;2023-05-28T06:32:58;17.10;99.90
3756;DHT22;1893;52.526;13.360;2023-05-28T06:35:23;17.10;99.90
3756;DHT22;1893;52.526;13.360;2023-05-28T06:37:49;17.20;99.90
3756;DHT22;1893;52.526;13.360;2023-05-28T06:40:15;17.40;99.90
3756;DHT22;1893;52.526;13.360;2023-05-28T06:42:41;17.50;99.90
3756;DHT22;1893;52.526;13.360;2023-05-28T06:45:07;17.60;99.90
3756;DHT22;1893;52.526;13.360;2023-05-28T06:47:33;17.60;97.70
3756;DHT22;1893;52.526;13.360;2023-05-28T06:49:58;17.80;98.00
3756;DHT22;1893;52.526;13.360;2023-05-28T06:52:24;18.00;99.90
3756;DHT22;1893;52.526;13.360;2023-05-28T06:54:51;18.10;99.90
3756;DHT22;1893;52.526;13.360;2023-05-28T06:57:16;18.30;94.40
3756;DHT22;1893;52.526;13.360;2023-05-28T06:59:42;18.30;91.50
3756;DHT22;1893;52.526;13.360;2023-05-28T07:02:07;18.40;90.00
3756;DHT22;1893;52.526;13.360;2023-05-28T07:04:33;18.40;90.90
3756;DHT22;1893;52.526;13.360;2023-05-28T07:06:58;18.70;90.90
3756;DHT22;1893;52.526;13.360;2023-05-28T07:09:24;18.80;86.80
3756;DHT22;1893;52.526;13.360;2023-05-28T07:11:50;18.90;73.50
3756;DHT22;1893;52.526;13.360;2023-05-28T07:14:15;19.00;75.90
3756;DHT22;1893;52.526;13.360;2023-05-28T07:16:41;19.10;74.30
3756;DHT22;1893;52.526;13.360;2023-05-28T07:19:07;19.20;74.20
3756;DHT22;1893;52.526;13.360;2023-05-28T07:21:33;19.40;75.10
3756;DHT22;1893;52.526;13.360;2023-05-28T07:23:58;19.40;56.40
3756;DHT22;1893;52.526;13.360;2023-05-28T07:26:24;19.30;52.70
3756;DHT22;1893;52.526;13.360;2023-05-28T07:28:51;19.20;49.00
3756;DHT22;1893;52.526;13.360;2023-05-28T07:31:17;19.30;49.80
3756;DHT22;1893;52.526;13.360;2023-05-28T07:33:42;19.70;51.70
3756;DHT22;1893;52.526;13.360;2023-05-28T07:36:08;19.90;52.60
3756;DHT22;1893;52.526;13.360;2023-05-28T07:38:34;20.00;46.80
3756;DHT22;1893;52.526;13.360;2023-05-28T07:40:59;20.00;44.60
3756;DHT22;1893;52.526;13.360;2023-05-28T07:43:25;20.20;41.70
3756;DHT22;1893;52.526;13.360;2023-05-28T07:45:51;20.60;44.40
3756;DHT22;1893;52.526;13.360;2023-05-28T07:48:16;20.60;40.90
3756;DHT22;1893;52.526;13.360;2023-05-28T07:50:42;20.90;41.40
3756;DHT22;1893;52.526;13.360;2023-05-28T07:53:08;20.70;35.80
3756;DHT22;1893;52.526;13.360;2023-05-28T07:55:34;20.60;32.70
3756;DHT22;1893;52.526;13.360;2023-05-28T07:58:00;20.90;34.60
3756;DHT22;1893;52.526;13.360;2023-05-28T08:00:26;21.00;33.30
3756;DHT22;1893;52.526;13.360;2023-05-28T08:02:52;21.10;31.60
3756;DHT22;1893;52.526;13.360;2023-05-28T08:05:17;21.00;28.90
3756;DHT22;1893;52.526;13.360;2023-05-28T08:07:44;20.70;24.80
3756;DHT22;1893;52.526;13.360;2023-05-28T08:10:10;20.90;25.70
3756;DHT22;1893;52.526;13.360;2023-05-28T08:12:35;21.00;25.20
3756;DHT22;1893;52.526;13.360;2023-05-28T08:15:01;20.70;20.90
3756;DHT22;1893;52.526;13.360;2023-05-28T08:17:30;20.20;16.60
3756;DHT22;1893;52.526;13.360;2023-05-28T08:19:59;20.40;18.80
3756;DHT22;1893;52.526;13.360;2023-05-28T08:22:25;20.80;20.50
3756;DHT22;1893;52.526;13.360;2023-05-28T08:24:50;21.10;20.70
3756;DHT22;1893;52.526;13.360;2023-05-28T08:27:16;21.30;20.50
3756;DHT22;1893;52.526;13.360;2023-05-28T08:29:42;21.30;18.30
3756;DHT22;1893;52.526;13.360;2023-05-28T08:32:07;21.10;15.10
3756;DHT22;1893;52.526;13.360;2023-05-28T08:34:33;21.40;16.90
3756;DHT22;1893;52.526;13.360;2023-05-28T08:37:02;21.30;14.60
3756;DHT22;1893;52.526;13.360;2023-05-28T08:39:28;21.40;13.70
3756;DHT22;1893;52.526;13.360;2023-05-28T08:41:54;21.30;12.30
3756;DHT22;1893;52.526;13.360;2023-05-28T08:44:22;21.50;13.60
3756;DHT22;1893;52.526;13.360;2023-05-28T08:46:48;21.40;12.00
3756;DHT22;1893;52.526;13.360;2023-05-28T08:49:17;21.60;10.70
3756;DHT22;1893;52.526;13.360;2023-05-28T08:51:43;21.10;4.20
3756;DHT22;1893;52.526;13.360;2023-05-28T08:54:12;21.10;11.30
3756;DHT22;1893;52.526;13.360;2023-05-28T08:56:40;21.10;4.20
3756;DHT22;1893;52.526;13.360;2023-05-28T08:59:06;20.90;3.60
3756;DHT22;1893;52.526;13.360;2023-05-28T09:01:33;21.00;2.70
3756;DHT22;1893;52.526;13.360;2023-05-28T09:03:59;21.40;5.00
3756;DHT22;1893;52.526;13.360;2023-05-28T09:06:25;21.60;4.70
3756;DHT22;1893;52.526;13.360;2023-05-28T09:08:53;21.90;7.50
3756;DHT22;1893;52.526;13.360;2023-05-28T09:11:18;22.20;9.00
3756;DHT22;1893;52.526;13.360;2023-05-28T09:13:45;22.40;8.80
3756;DHT22;1893;52.526;13.360;2023-05-28T09:16:12;22.50;7.50
3756;DHT22;1893;52.526;13.360;2023-05-28T09:18:46;21.70;1.50
3756;DHT22;1893;52.526;13.360;2023-05-28T09:21:13;21.70;1.70
3756;DHT22;1893;52.526;13.360;2023-05-28T09:23:39;22.00;4.40
3756;DHT22;1893;52.526;13.360;2023-05-28T09:26:11;22.10;2.90
3756;DHT22;1893;52.526;13.360;2023-05-28T09:28:41;22.30;4.10
3756;DHT22;1893;52.526;13.360;2023-05-28T09:31:07;22.60;5.10
3756;DHT22;1893;52.526;13.360;2023-05-28T09:33:33;22.50;2.80
3756;DHT22;1893;52.526;13.360;2023-05-28T09:36:02;22.20;1.00
3756;DHT22;1893;52.526;13.360;2023-05-28T09:38:38;22.20;1.00
3756;DHT22;1893;52.526;13.360;2023-05-28T09:41:23;22.40;1.00
3756;DHT22;1893;52.526;13.360;2023-05-28T09:43:57;22.20;1.00
3756;DHT22;1893;52.526;13.360;2023-05-28T09:46:30;22.40;1.00
3756;DHT22;1893;52.526;13.360;2023-05-28T09:48:57;22.70;1.00
3756;DHT22;1893;52.526;13.360;2023-05-28T09:51:26;22.90;1.00
3756;DHT22;1893;52.526;13.360;2023-05-28T09:54:05;23.50;1.60
3756;DHT22;1893;52.526;13.360;2023-05-28T09:56:34;23.90;4.00
3756;DHT22;1893;52.526;13.360;2023-05-28T09:59:06;24.60;7.60
3756;DHT22;1893;52.526;13.360;2023-05-28T10:01:41;25.30;10.50
3756;DHT22;1893;52.526;13.360;2023-05-28T10:04:12;25.90;12.80
3756;DHT22;1893;52.526;13.360;2023-05-28T10:06:43;26.10;12.80
3756;DHT22;1893;52.526;13.360;2023-05-28T10:09:14;26.40;14.60
3756;DHT22;1893;52.526;13.360;2023-05-28T10:11:50;26.30;13.10
3756;DHT22;1893;52.526;13.360;2023-05-28T10:14:19;26.90;13.60
3756;DHT22;1893;52.526;13.360;2023-05-28T10:16:45;27.60;17.90
3756;DHT22;1893;52.526;13.360;2023-05-28T10:19:12;27.80;19.50
3756;DHT22;1893;52.526;13.360;2023-05-28T10:21:40;27.90;17.60
3756;DHT22;1893;52.526;13.360;2023-05-28T10:24:06;28.00;18.10
3756;DHT22;1893;52.526;13.360;2023-05-28T10:26:32;27.80;16.50
3756;DHT22;1893;52.526;13.360;2023-05-28T10:28:57;28.30;18.80
3756;DHT22;1893;52.526;13.360;2023-05-28T10:31:23;28.50;19.30
3756;DHT22;1893;52.526;13.360;2023-05-28T10:33:49;28.90;33.90
3756;DHT22;1893;52.526;13.360;2023-05-28T10:36:18;29.30;23.70
3756;DHT22;1893;52.526;13.360;2023-05-28T10:41:22;28.40;15.00
3756;DHT22;1893;52.526;13.360;2023-05-28T10:43:50;29.20;18.90
3756;DHT22;1893;52.526;13.360;2023-05-28T10:49:05;27.80;7.20
3756;DHT22;1893;52.526;13.360;2023-05-28T10:57:14;28.90;10.60
3756;DHT22;1893;52.526;13.360;2023-05-28T10:59:50;28.40;7.30
3756;DHT22;1893;52.526;13.360;2023-05-28T11:02:27;29.40;11.90
3756;DHT22;1893;52.526;13.360;2023-05-28T11:04:54;29.90;12.90
3756;DHT22;1893;52.526;13.360;2023-05-28T11:07:22;30.00;14.50
3756;DHT22;1893;52.526;13.360;2023-05-28T11:09:50;30.30;15.60
3756;DHT22;1893;52.526;13.360;2023-05-28T11:12:21;29.90;22.50
3756;DHT22;1893;52.526;13.360;2023-05-28T11:14:47;29.40;6.10
3756;DHT22;1893;52.526;13.360;2023-05-28T11:17:13;28.90;3.50
3756;DHT22;1893;52.526;13.360;2023-05-28T11:19:43;28.10;1.00
3756;DHT22;1893;52.526;13.360;2023-05-28T11:22:10;28.30;1.00
3756;DHT22;1893;52.526;13.360;2023-05-28T11:25:03;29.00;1.00
3756;DHT22;1893;52.526;13.360;2023-05-28T11:27:31;29.40;1.40
3756;DHT22;1893;52.526;13.360;2023-05-28T11:30:01;29.50;1.00
3756;DHT22;1893;52.526;13.360;2023-05-28T11:32:30;29.10;1.00
3756;DHT22;1893;52.526;13.360;2023-05-28T11:34:57;29.50;1.00
3756;DHT22;1893;52.526;13.360;2023-05-28T11:37:24;28.80;1.00
3756;DHT22;1893;52.526;13.360;2023-05-28T11:39:52;28.60;1.00
3756;DHT22;1893;52.526;13.360;2023-05-28T11:42:19;27.30;1.00
3756;DHT22;1893;52.526;13.360;2023-05-28T11:44:46;26.40;1.00
3756;DHT22;1893;52.526;13.360;2023-05-28T11:47:12;26.00;1.00
3756;DHT22;1893;52.526;13.360;2023-05-28T11:49:39;25.30;1.00
3756;DHT22;1893;52.526;13.360;2023-05-28T11:52:05;25.10;1.00
3756;DHT22;1893;52.526;13.360;2023-05-28T11:54:30;25.20;1.00
3756;DHT22;1893;52.526;13.360;2023-05-28T11:56:56;25.50;1.00
3756;DHT22;1893;52.526;13.360;2023-05-28T11:59:22;25.50;1.00
3756;DHT22;1893;52.526;13.360;2023-05-28T12:01:51;25.20;1.00
3756;DHT22;1893;52.526;13.360;2023-05-28T12:04:22;25.20;1.00
3756;DHT22;1893;52.526;13.360;2023-05-28T12:06:52;25.10;1.00
3756;DHT22;1893;52.526;13.360;2023-05-28T12:09:18;24.80;1.00
3756;DHT22;1893;52.526;13.360;2023-05-28T12:11:44;24.90;1.00
3756;DHT22;1893;52.526;13.360;2023-05-28T12:14:13;24.90;1.00
3756;DHT22;1893;52.526;13.360;2023-05-28T12:16:45;24.70;1.00
3756;DHT22;1893;52.526;13.360;2023-05-28T12:19:16;24.70;1.00
3756;DHT22;1893;52.526;13.360;2023-05-28T12:21:43;24.80;1.00
3756;DHT22;1893;52.526;13.360;2023-05-28T12:24:16;24.80;1.00
3756;DHT22;1893;52.526;13.360;2023-05-28T12:26:42;25.00;1.00
3756;DHT22;1893;52.526;13.360;2023-05-28T12:29:07;25.10;1.00
3756;DHT22;1893;52.526;13.360;2023-05-28T12:31:33;25.20;1.00
3756;DHT22;1893;52.526;13.360;2023-05-28T12:33:59;25.10;1.00
3756;DHT22;1893;52.526;13.360;2023-05-28T12:36:25;24.80;1.00
3756;DHT22;1893;52.526;13.360;2023-05-28T12:38:50;25.00;1.00
3756;DHT22;1893;52.526;13.360;2023-05-28T12:41:17;25.10;1.00
3756;DHT22;1893;52.526;13.360;2023-05-28T12:43:43;25.10;1.00
3756;DHT22;1893;52.526;13.360;2023-05-28T12:46:09;25.30;1.00
3756;DHT22;1893;52.526;13.360;2023-05-28T12:48:35;25.10;1.00
3756;DHT22;1893;52.526;13.360;2023-05-28T12:51:01;25.20;1.00
3756;DHT22;1893;52.526;13.360;2023-05-28T12:53:28;25.20;1.00
3756;DHT22;1893;52.526;13.360;2023-05-28T12:55:54;25.30;1.00
3756;DHT22;1893;52.526;13.360;2023-05-28T12:58:20;25.00;1.00
3756;DHT22;1893;52.526;13.360;2023-05-28T13:00:46;24.70;1.00
3756;DHT22;1893;52.526;13.360;2023-05-28T13:03:12;24.60;1.00
3756;DHT22;1893;52.526;13.360;2023-05-28T13:05:38;24.70;1.00
3756;DHT22;1893;52.526;13.360;2023-05-28T13:08:03;24.90;1.00
3756;DHT22;1893;52.526;13.360;2023-05-28T13:10:29;25.00;1.00
3756;DHT22;1893;52.526;13.360;2023-05-28T13:12:55;24.70;1.00
3756;DHT22;1893;52.526;13.360;2023-05-28T13:15:20;24.70;1.00
3756;DHT22;1893;52.526;13.360;2023-05-28T13:17:46;24.80;1.00
3756;DHT22;1893;52.526;13.360;2023-05-28T13:20:12;24.70;1.00
3756;DHT22;1893;52.526;13.360;2023-05-28T13:22:38;24.80;1.00
3756;DHT22;1893;52.526;13.360;2023-05-28T13:25:04;24.90;1.00
3756;DHT22;1893;52.526;13.360;2023-05-28T13:27:30;24.90;1.00
3756;DHT22;1893;52.526;13.360;2023-05-28T13:29:56;25.00;1.00
3756;DHT22;1893;52.526;13.360;2023-05-28T13:32:22;25.00;1.00
3756;DHT22;1893;52.526;13.360;2023-05-28T13:34:48;24.90;1.00
3756;DHT22;1893;52.526;13.360;2023-05-28T13:37:13;25.20;1.00
3756;DHT22;1893;52.526;13.360;2023-05-28T13:39:39;24.90;1.00
3756;DHT22;1893;52.526;13.360;2023-05-28T13:42:05;24.80;1.00
3756;DHT22;1893;52.526;13.360;2023-05-28T13:44:32;24.90;1.00
3756;DHT22;1893;52.526;13.360;2023-05-28T13:46:58;25.00;1.00
3756;DHT22;1893;52.526;13.360;2023-05-28T13:49:24;25.20;1.00
3756;DHT22;1893;52.526;13.360;2023-05-28T13:51:49;25.00;1.00
3756;DHT22;1893;52.526;13.360;2023-05-28T13:54:15;24.70;1.00
3756;DHT22;1893;52.526;13.360;2023-05-28T13:56:41;24.60;1.00
3756;DHT22;1893;52.526;13.360;2023-05-28T13:59:07;24.60;1.00
3756;DHT22;1893;52.526;13.360;2023-05-28T14:01:33;24.70;1.00
3756;DHT22;1893;52.526;13.360;2023-05-28T14:03:58;24.70;1.00
3756;DHT22;1893;52.526;13.360;2023-05-28T14:06:24;24.80;1.00
3756;DHT22;1893;52.526;13.360;2023-05-28T14:08:50;24.40;1.00
3756;DHT22;1893;52.526;13.360;2023-05-28T14:11:15;24.70;1.00
3756;DHT22;1893;52.526;13.360;2023-05-28T14:13:43;24.60;1.00
3756;DHT22;1893;52.526;13.360;2023-05-28T14:16:08;24.40;1.00
3756;DHT22;1893;52.526;13.360;2023-05-28T14:18:34;24.40;1.00
3756;DHT22;1893;52.526;13.360;2023-05-28T14:21:00;24.30;1.00
3756;DHT22;1893;52.526;13.360;2023-05-28T14:23:25;24.40;1.00
3756;DHT22;1893;52.526;13.360;2023-05-28T14:25:51;24.40;1.00
3756;DHT22;1893;52.526;13.360;2023-05-28T14:28:17;24.60;1.00
3756;DHT22;1893;52.526;13.360;2023-05-28T14:30:43;24.60;1.00
3756;DHT22;1893;52.526;13.360;2023-05-28T14:33:10;24.50;1.00
3756;DHT22;1893;52.526;13.360;2023-05-28T14:35:36;24.60;1.00
3756;DHT22;1893;52.526;13.360;2023-05-28T14:38:02;24.70;1.00
3756;DHT22;1893;52.526;13.360;2023-05-28T14:40:28;24.70;1.00
3756;DHT22;1893;52.526;13.360;2023-05-28T14:42:53;24.70;1.00
3756;DHT22;1893;52.526;13.360;2023-05-28T14:45:19;24.70;1.00
3756;DHT22;1893;52.526;13.360;2023-05-28T14:47:44;24.50;1.00
3756;DHT22;1893;52.526;13.360;2023-05-28T14:50:10;24.50;1.00
3756;DHT22;1893;52.526;13.360;2023-05-28T14:52:36;24.40;1.00
3756;DHT22;1893;52.526;13.360;2023-05-28T14:55:01;24.30;1.00
3756;DHT22;1893;52.526;13.360;2023-05-28T14:57:28;24.50;1.00
3756;DHT22;1893;52.526;13.360;2023-05-28T14:59:59;24.40;1.00
3756;DHT22;1893;52.526;13.360;2023-05-28T15:02:26;24.30;1.00
3756;DHT22;1893;52.526;13.360;2023-05-28T15:04:52;23.80;1.00
3756;DHT22;1893;52.526;13.360;2023-05-28T15:07:18;23.80;1.00
3756;DHT22;1893;52.526;13.360;2023-05-28T15:09:44;24.10;1.00
3756;DHT22;1893;52.526;13.360;2023-05-28T15:12:10;24.10;1.00
3756;DHT22;1893;52.526;13.360;2023-05-28T15:14:36;24.40;1.00
3756;DHT22;1893;52.526;13.360;2023-05-28T15:17:02;24.40;1.00
3756;DHT22;1893;52.526;13.360;2023-05-28T15:19:28;24.40;1.00
3756;DHT22;1893;52.526;13.360;2023-05-28T15:21:54;24.40;1.00
3756;DHT22;1893;52.526;13.360;2023-05-28T15:24:20;24.10;1.00
3756;DHT22;1893;52.526;13.360;2023-05-28T15:26:45;24.00;1.00
3756;DHT22;1893;52.526;13.360;2023-05-28T15:29:15;24.00;1.00
3756;DHT22;1893;52.526;13.360;2023-05-28T15:31:44;24.10;1.00
3756;DHT22;1893;52.526;13.360;2023-05-28T15:34:10;24.10;1.00
3756;DHT22;1893;52.526;13.360;2023-05-28T15:36:36;24.20;1.00
3756;DHT22;1893;52.526;13.360;2023-05-28T15:39:03;24.30;1.00
3756;DHT22;1893;52.526;13.360;2023-05-28T15:41:29;24.20;1.00
3756;DHT22;1893;52.526;13.360;2023-05-28T15:43:56;24.10;1.00
3756;DHT22;1893;52.526;13.360;2023-05-28T15:46:22;24.00;1.00
3756;DHT22;1893;52.526;13.360;2023-05-28T15:48:48;24.00;1.00
3756;DHT22;1893;52.526;13.360;2023-05-28T15:51:13;24.00;1.00
3756;DHT22;1893;52.526;13.360;2023-05-28T15:53:39;23.80;1.00
3756;DHT22;1893;52.526;13.360;2023-05-28T15:56:05;23.70;1.00
3756;DHT22;1893;52.526;13.360;2023-05-28T15:58:31;23.60;1.00
3756;DHT22;1893;52.526;13.360;2023-05-28T16:00:56;23.40;1.00